Time;durP1;ratioP1;P1;durP2;ratioP2;P2;SDS_P1;SDS_P2;PMS_P1;PMS_P2;Temp;Humidity;BMP_temperature;BMP_pressure;BME280_temperature;BME280_humidity;BME280_pressure;Samples;Min_cycle;Max_cycle;Signal;HPM_P1;HPM_P2
2023/04/11 00:01:52;;;;;;;36.22;17.25;;;7.80;99.90;;;;;;6124678;23;20025;-81
2023/04/11 00:04:19;;;;;;;35.40;17.92;;;7.80;99.90;;;;;;6120471;23;20489;-81
2023/04/11 00:06:47;;;;;;;38.03;17.17;;;7.80;99.90;;;;;;6124609;23;20131;-81
2023/04/11 00:09:15;;;;;;;38.75;19.00;;;7.70;99.90;;;;;;6119771;23;20029;-81
2023/04/11 00:11:42;;;;;;;41.55;18.70;;;7.70;99.90;;;;;;6147892;23;20460;-81
2023/04/11 00:14:11;;;;;;;42.03;19.42;;;7.60;99.90;;;;;;6147937;23;20039;-81
2023/04/11 00:16:40;;;;;;;43.17;19.10;;;7.60;99.90;;;;;;6118968;23;20021;-81
2023/04/11 00:19:08;;;;;;;44.33;18.92;;;7.60;99.90;;;;;;6143778;23;20021;-81
2023/04/11 00:21:38;;;;;;;39.35;17.33;;;7.60;99.90;;;;;;6120382;23;20337;-81
2023/04/11 00:24:07;;;;;;;40.17;18.63;;;7.70;99.90;;;;;;6119418;23;20021;-81
2023/04/11 00:26:34;;;;;;;39.47;18.35;;;7.60;99.90;;;;;;6148231;23;20025;-81
2023/04/11 00:29:01;;;;;;;40.65;18.23;;;7.60;99.90;;;;;;6118851;23;20021;-81
2023/04/11 00:31:29;;;;;;;37.58;16.65;;;7.60;99.90;;;;;;6143882;23;20029;-81
2023/04/11 00:33:57;;;;;;;36.53;16.35;;;7.50;99.90;;;;;;6119218;23;20578;-81
2023/04/11 00:36:25;;;;;;;36.70;16.55;;;7.50;99.90;;;;;;6147362;23;20028;-81
2023/04/11 00:38:53;;;;;;;37.95;16.73;;;7.50;99.90;;;;;;6118501;23;20032;-81
2023/04/11 00:41:21;;;;;;;38.65;17.23;;;7.40;99.90;;;;;;6144414;23;20349;-81
2023/04/11 00:43:48;;;;;;;37.38;15.95;;;7.40;99.90;;;;;;6124421;23;20025;-81
2023/04/11 00:46:16;;;;;;;38.53;16.98;;;7.40;99.90;;;;;;6119006;23;20033;-81
2023/04/11 00:48:44;;;;;;;34.97;16.02;;;7.40;99.90;;;;;;6120361;23;20044;-81
2023/04/11 00:51:11;;;;;;;37.63;16.58;;;7.30;99.90;;;;;;6145500;23;20025;-81
2023/04/11 00:53:38;;;;;;;37.45;16.50;;;7.30;99.90;;;;;;6142645;23;20515;-81
2023/04/11 00:56:06;;;;;;;37.95;17.38;;;7.30;99.90;;;;;;6141969;23;20059;-81
2023/04/11 00:58:33;;;;;;;36.80;17.67;;;7.30;99.90;;;;;;6117809;23;20025;-81
2023/04/11 01:01:00;;;;;;;34.85;16.92;;;7.20;99.90;;;;;;6142876;23;20818;-81
2023/04/11 01:03:28;;;;;;;33.90;16.50;;;7.20;99.90;;;;;;6142850;23;20025;-81
2023/04/11 01:05:56;;;;;;;34.67;16.25;;;7.20;99.90;;;;;;6120120;23;20025;-81
2023/04/11 01:08:24;;;;;;;33.60;15.30;;;7.20;99.90;;;;;;6141592;23;20029;-81
2023/04/11 01:10:51;;;;;;;34.25;16.35;;;7.20;99.90;;;;;;6118038;23;20025;-81
2023/04/11 01:13:19;;;;;;;33.45;16.38;;;7.20;99.90;;;;;;6141454;23;20358;-81
2023/04/11 01:15:46;;;;;;;35.13;15.73;;;7.10;99.90;;;;;;6123026;23;20360;-81
2023/04/11 01:18:14;;;;;;;34.88;15.80;;;7.10;99.90;;;;;;6142873;23;20020;-81
2023/04/11 01:20:41;;;;;;;33.35;15.52;;;7.00;99.90;;;;;;6147974;23;20031;-81
2023/04/11 01:23:10;;;;;;;31.10;15.20;;;7.00;99.90;;;;;;6145026;23;20040;-81
2023/04/11 01:25:37;;;;;;;32.17;14.80;;;7.00;99.90;;;;;;6118684;23;20337;-81
2023/04/11 01:28:07;;;;;;;30.52;13.73;;;7.00;99.90;;;;;;6142244;23;20020;-80
2023/04/11 01:30:34;;;;;;;31.88;14.32;;;7.00;99.90;;;;;;6146949;23;20031;-80
2023/04/11 01:33:02;;;;;;;33.67;14.43;;;7.00;99.90;;;;;;6121341;23;20051;-81
2023/04/11 01:35:29;;;;;;;31.95;14.10;;;7.00;99.90;;;;;;6119282;23;20433;-81
2023/04/11 01:37:57;;;;;;;29.98;14.00;;;6.90;99.90;;;;;;6143091;23;20036;-81
2023/04/11 01:40:26;;;;;;;32.35;14.10;;;6.90;99.90;;;;;;6143583;23;20036;-81
2023/04/11 01:42:54;;;;;;;32.67;14.63;;;6.90;99.90;;;;;;6117942;23;20025;-81
2023/04/11 01:45:21;;;;;;;31.45;14.98;;;6.80;99.90;;;;;;6116223;23;20036;-81
2023/04/11 01:47:50;;;;;;;30.60;14.25;;;6.80;99.90;;;;;;6141318;23;20031;-81
2023/04/11 01:50:18;;;;;;;33.42;14.85;;;6.80;99.90;;;;;;6140389;23;20333;-81
2023/04/11 01:52:45;;;;;;;36.35;14.55;;;6.80;99.90;;;;;;6119451;23;20020;-81
2023/04/11 01:55:13;;;;;;;33.70;15.82;;;6.70;99.90;;;;;;6117506;23;20761;-81
2023/04/11 01:57:40;;;;;;;29.83;13.80;;;6.70;99.90;;;;;;6142311;23;20484;-81
2023/04/11 02:00:09;;;;;;;30.73;13.77;;;6.60;99.90;;;;;;6117168;23;20029;-81
2023/04/11 02:02:44;;;;;;;31.80;14.23;;;6.60;99.90;;;;;;6119707;23;20116;-81
2023/04/11 02:05:11;;;;;;;32.95;14.73;;;6.60;99.90;;;;;;6146859;23;20096;-81
2023/04/11 02:07:38;;;;;;;33.45;15.15;;;6.60;99.90;;;;;;6115981;23;20029;-81
2023/04/11 02:10:06;;;;;;;30.77;14.40;;;6.50;99.90;;;;;;6121709;23;20167;-80
2023/04/11 02:12:33;;;;;;;31.88;14.40;;;6.50;99.90;;;;;;6118784;23;20047;-81
2023/04/11 02:15:00;;;;;;;29.10;14.32;;;6.50;99.90;;;;;;6118844;23;20032;-81
2023/04/11 02:17:29;;;;;;;32.53;14.90;;;6.50;99.90;;;;;;6119467;23;20021;-81
2023/04/11 02:19:57;;;;;;;34.33;14.25;;;6.50;99.90;;;;;;6118668;23;20021;-81
2023/04/11 02:22:24;;;;;;;31.40;14.50;;;6.40;99.90;;;;;;6118130;23;20520;-81
2023/04/11 02:24:52;;;;;;;28.63;12.90;;;6.30;99.90;;;;;;6142086;23;20028;-81
2023/04/11 02:27:19;;;;;;;31.48;14.02;;;6.30;99.90;;;;;;6118850;23;20025;-81
2023/04/11 02:29:46;;;;;;;28.17;13.20;;;6.30;99.90;;;;;;6118063;23;20029;-81
2023/04/11 02:32:14;;;;;;;27.33;13.18;;;6.30;99.90;;;;;;6118859;23;20025;-81
2023/04/11 02:34:45;;;;;;;29.48;14.45;;;6.30;99.90;;;;;;6144371;23;20528;-81
2023/04/11 02:37:12;;;;;;;30.65;14.20;;;6.30;99.90;;;;;;6143105;23;20031;-81
2023/04/11 02:39:39;;;;;;;31.33;13.98;;;6.20;99.90;;;;;;6119379;23;20081;-81
2023/04/11 02:42:06;;;;;;;31.73;14.20;;;6.20;99.90;;;;;;6143505;23;20016;-81
2023/04/11 02:44:33;;;;;;;31.67;14.40;;;6.20;99.90;;;;;;6144578;23;20024;-81
2023/04/11 02:47:00;;;;;;;31.27;13.57;;;6.20;99.90;;;;;;6146349;23;20408;-81
2023/04/11 02:49:28;;;;;;;31.10;14.02;;;6.10;99.90;;;;;;6120401;23;20025;-81
2023/04/11 02:51:55;;;;;;;26.83;13.48;;;6.10;99.90;;;;;;6117628;23;20516;-81
2023/04/11 02:54:22;;;;;;;31.20;14.05;;;6.10;99.90;;;;;;6119688;23;20032;-81
2023/04/11 02:56:51;;;;;;;35.42;14.35;;;6.10;99.90;;;;;;6146672;23;20068;-80
2023/04/11 02:59:18;;;;;;;28.15;13.57;;;6.10;99.90;;;;;;6145655;23;20025;-81
2023/04/11 03:01:45;;;;;;;29.25;13.15;;;6.00;99.90;;;;;;6143091;23;20349;-81
2023/04/11 03:04:13;;;;;;;32.17;14.55;;;6.00;99.90;;;;;;6143955;23;20172;-81
2023/04/11 03:07:05;;;;;;;31.42;13.88;;;6.00;99.90;;;;;;6144669;23;20434;-81
2023/04/11 03:09:32;;;;;;;32.03;14.18;;;6.00;99.90;;;;;;6121737;23;20402;-81
2023/04/11 03:12:00;;;;;;;30.67;14.60;;;5.90;99.90;;;;;;6145084;23;20062;-81
2023/04/11 03:14:27;;;;;;;30.35;14.50;;;5.90;99.90;;;;;;6145054;23;20365;-81
2023/04/11 03:16:54;;;;;;;32.00;14.30;;;5.90;99.90;;;;;;6118762;23;20056;-81
2023/04/11 03:19:21;;;;;;;34.25;16.00;;;5.90;99.90;;;;;;6145245;23;20021;-81
2023/04/11 03:21:48;;;;;;;35.67;16.45;;;6.00;99.90;;;;;;6119868;23;20528;-81
2023/04/11 03:24:16;;;;;;;34.65;15.52;;;5.90;99.90;;;;;;6144629;23;20600;-81
2023/04/11 03:26:43;;;;;;;31.42;14.88;;;5.90;99.90;;;;;;6116361;23;20029;-81
2023/04/11 03:29:15;;;;;;;32.25;16.35;;;5.90;99.90;;;;;;6122920;23;20029;-81
2023/04/11 03:31:58;;;;;;;38.88;15.82;;;5.90;99.90;;;;;;6145904;23;20033;-81
2023/04/11 03:34:27;;;;;;;34.65;15.60;;;5.90;99.90;;;;;;6118101;23;20270;-81
2023/04/11 03:36:56;;;;;;;36.85;17.50;;;6.10;99.90;;;;;;6119550;23;20441;-81
2023/04/11 03:39:24;;;;;;;33.55;17.33;;;5.80;99.90;;;;;;6146556;23;20739;-81
2023/04/11 03:41:51;;;;;;;32.38;16.23;;;5.80;99.90;;;;;;6147169;23;20021;-81
2023/04/11 03:44:19;;;;;;;30.85;16.20;;;5.80;99.90;;;;;;6143301;23;20131;-81
2023/04/11 03:46:46;;;;;;;31.58;14.63;;;5.80;99.90;;;;;;6142163;23;20024;-81
2023/04/11 03:49:13;;;;;;;30.08;14.30;;;5.80;99.90;;;;;;6147455;23;20513;-81
2023/04/11 03:51:42;;;;;;;33.22;13.35;;;5.70;99.90;;;;;;6142946;23;20025;-81
2023/04/11 03:54:09;;;;;;;30.10;12.70;;;5.70;99.90;;;;;;6142824;23;20029;-81
2023/04/11 03:56:39;;;;;;;28.65;12.35;;;5.70;99.90;;;;;;6142256;23;20357;-81
2023/04/11 03:59:14;;;;;;;26.58;11.75;;;5.70;99.90;;;;;;6142211;23;20016;-81
2023/04/11 04:01:50;;;;;;;26.70;12.60;;;5.70;99.90;;;;;;6117132;23;20024;-81
2023/04/11 04:04:18;;;;;;;26.23;14.05;;;5.70;99.90;;;;;;6118414;23;20428;-81
2023/04/11 04:06:55;;;;;;;31.30;12.73;;;5.70;99.90;;;;;;6120340;23;20031;-81
2023/04/11 04:09:30;;;;;;;27.90;12.55;;;5.70;99.90;;;;;;6119387;23;20024;-81
2023/04/11 04:11:57;;;;;;;30.02;13.35;;;5.70;99.90;;;;;;6119572;23;20048;-81
2023/04/11 04:14:36;;;;;;;25.42;12.35;;;5.70;99.90;;;;;;6119650;23;20135;-81
2023/04/11 04:17:04;;;;;;;28.00;12.95;;;5.70;99.90;;;;;;6121811;23;20440;-81
2023/04/11 04:19:31;;;;;;;30.30;12.77;;;5.70;99.90;;;;;;6142544;23;20025;-81
2023/04/11 04:21:58;;;;;;;27.42;12.85;;;5.70;99.90;;;;;;6122336;23;20602;-81
2023/04/11 04:24:30;;;;;;;29.13;13.57;;;5.70;99.90;;;;;;6141269;23;20450;-81
2023/04/11 04:27:09;;;;;;;26.05;12.63;;;5.70;99.90;;;;;;6144538;23;20828;-81
2023/04/11 04:29:46;;;;;;;27.73;11.20;;;5.70;99.90;;;;;;6143135;23;20029;-81
2023/04/11 04:32:23;;;;;;;34.85;12.48;;;5.80;99.90;;;;;;6142830;23;20029;-81
2023/04/11 04:34:57;;;;;;;26.52;12.15;;;5.80;99.90;;;;;;6122044;23;20360;-81
2023/04/11 04:37:27;;;;;;;25.33;12.07;;;5.80;99.90;;;;;;6120072;23;20027;-80
2023/04/11 04:40:08;;;;;;;27.92;13.48;;;5.80;99.90;;;;;;6119878;23;20406;-81
2023/04/11 04:42:48;;;;;;;31.23;13.95;;;5.80;99.90;;;;;;6119351;23;20027;-80
2023/04/11 04:45:16;;;;;;;30.45;13.77;;;5.80;99.90;;;;;;6145033;23;20029;-81
2023/04/11 04:47:43;;;;;;;29.75;14.02;;;5.80;99.90;;;;;;6142757;23;20021;-81
2023/04/11 04:50:11;;;;;;;29.60;14.20;;;5.90;99.90;;;;;;6142053;23;20027;-81
2023/04/11 04:52:38;;;;;;;39.03;16.40;;;5.90;99.90;;;;;;6118666;23;20447;-81
2023/04/11 04:55:06;;;;;;;35.45;15.30;;;5.90;99.90;;;;;;6118071;23;20330;-81
2023/04/11 04:57:33;;;;;;;32.45;13.90;;;6.00;99.90;;;;;;6140230;23;20084;-81
2023/04/11 05:00:10;;;;;;;33.38;13.57;;;6.00;99.90;;;;;;6139717;23;20032;-80
2023/04/11 05:02:40;;;;;;;28.42;13.65;;;6.00;99.90;;;;;;6116777;23;20029;-81
2023/04/11 05:05:08;;;;;;;31.92;14.13;;;6.10;99.90;;;;;;6142618;23;20117;-81
2023/04/11 05:07:36;;;;;;;31.60;13.85;;;6.10;99.90;;;;;;6142230;23;20084;-81
2023/04/11 05:10:04;;;;;;;27.45;13.15;;;6.20;99.90;;;;;;6146861;23;20025;-81
2023/04/11 05:12:31;;;;;;;30.83;14.07;;;6.20;99.90;;;;;;6117310;23;20040;-81
2023/04/11 05:15:08;;;;;;;31.88;13.20;;;6.30;99.90;;;;;;6141185;23;20140;-81
2023/04/11 05:17:35;;;;;;;29.30;14.02;;;6.30;99.90;;;;;;6116482;23;20112;-81
2023/04/11 05:20:05;;;;;;;31.30;15.43;;;6.40;99.90;;;;;;6147860;23;20027;-81
2023/04/11 05:22:32;;;;;;;38.70;16.98;;;6.40;99.90;;;;;;6124522;23;20060;-81
2023/04/11 05:25:00;;;;;;;34.83;15.70;;;6.50;99.90;;;;;;6145749;23;20032;-80
2023/04/11 05:27:27;;;;;;;34.10;17.15;;;6.50;99.90;;;;;;6145472;23;20516;-81
2023/04/11 05:29:55;;;;;;;37.47;17.05;;;6.60;99.90;;;;;;6145569;23;20032;-81
2023/04/11 05:32:22;;;;;;;38.63;17.63;;;6.70;99.90;;;;;;6134058;23;20028;-81
2023/04/11 05:34:52;;;;;;;42.50;19.92;;;6.80;99.90;;;;;;6158019;23;20033;-80
2023/04/11 05:37:36;;;;;;;42.55;19.33;;;6.80;99.90;;;;;;6158657;23;20032;-81
2023/04/11 05:40:04;;;;;;;43.00;20.45;;;6.90;99.90;;;;;;6156236;23;20063;-81
2023/04/11 05:42:33;;;;;;;45.03;20.98;;;7.00;99.90;;;;;;6134545;23;20017;-81
2023/04/11 05:45:00;;;;;;;47.42;21.05;;;7.20;99.90;;;;;;6133352;23;20021;-81
2023/04/11 05:47:27;;;;;;;46.47;22.52;;;7.20;99.90;;;;;;6161103;23;20028;-81
2023/04/11 05:49:55;;;;;;;47.25;21.23;;;7.30;99.90;;;;;;6156341;23;20025;-81
2023/04/11 05:52:22;;;;;;;50.47;22.30;;;7.50;99.90;;;;;;6159913;23;20763;-81
2023/04/11 05:54:49;;;;;;;55.72;22.75;;;7.60;99.90;;;;;;6100689;23;20112;-81
2023/04/11 05:57:16;;;;;;;48.60;21.98;;;7.70;99.90;;;;;;6108760;23;20074;-81
2023/04/11 05:59:48;;;;;;;45.20;20.15;;;7.90;99.90;;;;;;6083195;23;20026;-81
2023/04/11 06:02:16;;;;;;;48.10;20.93;;;8.00;99.90;;;;;;6084180;23;20097;-81
2023/04/11 06:04:43;;;;;;;48.42;22.08;;;8.10;99.90;;;;;;6108026;23;20457;-81
2023/04/11 06:07:11;;;;;;;45.95;22.48;;;8.30;99.90;;;;;;6108521;23;20124;-81
2023/04/11 06:09:41;;;;;;;44.90;20.73;;;8.50;99.90;;;;;;6107245;23;20788;-81
2023/04/11 06:12:08;;;;;;;40.35;19.70;;;8.70;99.90;;;;;;6105714;23;20563;-81
2023/04/11 06:14:36;;;;;;;45.75;20.15;;;8.80;99.90;;;;;;6111873;23;20065;-81
2023/04/11 06:17:06;;;;;;;44.83;20.95;;;9.00;99.90;;;;;;6106554;23;20454;-81
2023/04/11 06:19:33;;;;;;;43.25;19.33;;;9.20;99.90;;;;;;6109393;23;20365;-81
2023/04/11 06:22:00;;;;;;;41.90;20.17;;;9.30;99.90;;;;;;6109778;23;20087;-81
2023/04/11 06:24:38;;;;;;;46.30;20.70;;;9.40;99.90;;;;;;6105840;23;20068;-81
2023/04/11 06:27:09;;;;;;;41.05;20.35;;;9.50;99.90;;;;;;6106381;23;20021;-81
2023/04/11 06:29:42;;;;;;;39.83;18.67;;;9.60;99.90;;;;;;6106920;23;20517;-81
2023/04/11 06:32:10;;;;;;;37.75;18.52;;;9.70;99.90;;;;;;6123882;23;20523;-81
2023/04/11 06:34:38;;;;;;;35.75;16.80;;;9.80;99.90;;;;;;6149618;23;20079;-81
2023/04/11 06:37:06;;;;;;;37.15;18.02;;;9.90;99.90;;;;;;6154794;23;20383;-81
2023/04/11 06:39:33;;;;;;;32.40;15.48;;;10.00;99.90;;;;;;6119553;23;20498;-81
2023/04/11 06:42:01;;;;;;;30.20;14.95;;;10.10;99.90;;;;;;6143127;23;20020;-81
2023/04/11 06:44:31;;;;;;;27.25;13.55;;;10.10;99.90;;;;;;6144284;23;20052;-81
2023/04/11 06:46:58;;;;;;;25.23;12.90;;;10.20;99.90;;;;;;6143669;23;20658;-81
2023/04/11 06:49:27;;;;;;;25.67;13.18;;;10.20;99.90;;;;;;6119404;23;20326;-81
2023/04/11 06:51:54;;;;;;;28.25;14.20;;;10.30;99.90;;;;;;6143401;23;20064;-81
2023/04/11 06:54:22;;;;;;;26.58;14.48;;;10.50;99.90;;;;;;6118246;23;20131;-81
2023/04/11 06:56:49;;;;;;;31.08;15.55;;;10.70;99.90;;;;;;6143138;23;20051;-81
2023/04/11 06:59:20;;;;;;;27.55;14.10;;;10.90;99.90;;;;;;6143806;23;20463;-81
2023/04/11 07:01:49;;;;;;;27.67;13.30;;;11.10;99.90;;;;;;6138498;23;20036;-81
2023/04/11 07:04:16;;;;;;;23.95;11.68;;;11.20;99.90;;;;;;6140364;23;20477;-81
2023/04/11 07:06:44;;;;;;;28.20;13.65;;;11.30;99.90;;;;;;6140390;23;20112;-81
2023/04/11 07:09:11;;;;;;;24.13;12.38;;;11.60;99.90;;;;;;6142080;23;20334;-81
2023/04/11 07:11:39;;;;;;;19.52;10.68;;;11.60;99.90;;;;;;6139822;23;20025;-81
2023/04/11 07:14:06;;;;;;;18.88;9.95;;;11.70;99.90;;;;;;6142125;23;20358;-81
2023/04/11 07:16:33;;;;;;;15.20;8.20;;;11.80;99.90;;;;;;6141750;23;20084;-81
2023/04/11 07:19:02;;;;;;;16.08;8.23;;;11.80;99.90;;;;;;6117868;23;20027;-80
2023/04/11 07:21:32;;;;;;;15.63;8.20;;;12.00;99.90;;;;;;6116495;23;20013;-80
2023/04/11 07:24:02;;;;;;;17.15;8.18;;;12.20;99.90;;;;;;6117280;23;20017;-80
2023/04/11 07:26:31;;;;;;;15.98;7.97;;;12.40;99.90;;;;;;6116614;23;20025;-81
2023/04/11 07:28:58;;;;;;;16.00;8.52;;;12.40;99.90;;;;;;6117278;23;20428;-81
2023/04/11 07:31:26;;;;;;;17.02;8.80;;;12.60;99.90;;;;;;6119115;23;20028;-81
2023/04/11 07:33:53;;;;;;;21.15;8.52;;;12.80;99.70;;;;;;6142000;23;20133;-81
2023/04/11 07:36:21;;;;;;;15.80;7.60;;;13.10;99.10;;;;;;6118296;23;20055;-80
2023/04/11 07:38:48;;;;;;;11.55;6.25;;;13.40;98.00;;;;;;6118116;23;20032;-80
2023/04/11 07:41:15;;;;;;;10.75;5.75;;;13.60;95.80;;;;;;6115638;23;20016;-81
2023/04/11 07:43:42;;;;;;;9.25;5.05;;;13.50;95.20;;;;;;6119582;23;20099;-81
2023/04/11 07:46:10;;;;;;;11.63;5.43;;;13.40;94.40;;;;;;6118734;23;20021;-80
2023/04/11 07:48:38;;;;;;;7.93;4.47;;;13.30;94.40;;;;;;6141877;23;20539;-80
2023/04/11 07:51:05;;;;;;;8.07;4.15;;;13.20;93.00;;;;;;6142007;23;20062;-80
2023/04/11 07:53:33;;;;;;;10.35;5.45;;;13.20;93.00;;;;;;6142661;23;20115;-80
2023/04/11 07:56:00;;;;;;;7.60;4.57;;;13.10;93.60;;;;;;6114880;23;20028;-81
2023/04/11 07:58:27;;;;;;;8.35;4.97;;;13.10;93.80;;;;;;6114994;23;20379;-80
2023/04/11 08:00:54;;;;;;;12.93;6.03;;;13.40;94.00;;;;;;6164798;23;20021;-80
2023/04/11 08:03:22;;;;;;;11.48;6.32;;;13.50;94.50;;;;;;6120112;23;20436;-81
2023/04/11 08:05:51;;;;;;;15.80;7.55;;;13.50;93.80;;;;;;6118455;23;20051;-80
2023/04/11 08:08:18;;;;;;;12.88;7.45;;;13.40;94.60;;;;;;6141905;23;20033;-80
2023/04/11 08:10:45;;;;;;;13.60;7.65;;;13.50;94.90;;;;;;6116782;23;20028;-80
2023/04/11 08:13:12;;;;;;;16.27;8.30;;;13.50;95.10;;;;;;6141713;23;20456;-79
2023/04/11 08:15:39;;;;;;;15.98;9.63;;;13.50;94.30;;;;;;6115482;23;20031;-80
2023/04/11 08:18:07;;;;;;;14.98;7.55;;;13.40;94.60;;;;;;6117164;23;20025;-79
2023/04/11 08:20:39;;;;;;;12.40;6.82;;;13.40;95.10;;;;;;6117262;23;20032;-80
2023/04/11 08:23:07;;;;;;;13.68;7.22;;;13.50;95.40;;;;;;6141181;23;20068;-80
2023/04/11 08:25:35;;;;;;;11.60;5.38;;;13.50;94.50;;;;;;6119630;23;20029;-80
2023/04/11 08:28:03;;;;;;;9.65;5.70;;;13.60;94.20;;;;;;6124091;23;20051;-80
2023/04/11 08:30:31;;;;;;;7.97;4.97;;;13.70;93.20;;;;;;6119145;23;20031;-80
2023/04/11 08:32:58;;;;;;;8.13;4.82;;;13.70;92.90;;;;;;6141807;23;20051;-80
2023/04/11 08:35:25;;;;;;;7.75;4.55;;;13.80;91.80;;;;;;6140731;23;20021;-77
2023/04/11 08:37:53;;;;;;;9.15;5.10;;;13.90;92.40;;;;;;6116953;23;20032;-77
2023/04/11 08:40:20;;;;;;;9.45;6.10;;;13.70;91.40;;;;;;6117126;23;20064;-80
2023/04/11 08:42:48;;;;;;;10.35;6.25;;;13.60;91.90;;;;;;6142278;23;20444;-80
2023/04/11 08:45:15;;;;;;;11.23;6.18;;;13.70;92.50;;;;;;6118619;23;20766;-80
2023/04/11 08:47:42;;;;;;;12.95;7.28;;;13.80;92.90;;;;;;6118703;23;20025;-80
2023/04/11 08:50:11;;;;;;;11.23;7.30;;;14.10;92.60;;;;;;6118614;23;20028;-80
2023/04/11 08:52:39;;;;;;;15.55;7.90;;;14.30;92.00;;;;;;6116436;23;20492;-80
2023/04/11 08:55:07;;;;;;;12.13;7.28;;;14.40;92.10;;;;;;6114576;23;20031;-79
2023/04/11 08:57:36;;;;;;;11.95;6.82;;;14.60;92.10;;;;;;6118702;23;20456;-80
2023/04/11 09:00:17;;;;;;;12.98;6.93;;;14.60;92.10;;;;;;6137255;23;20516;-79
2023/04/11 09:03:04;;;;;;;14.65;7.25;;;14.60;91.10;;;;;;6117362;23;20357;-80
2023/04/11 09:05:39;;;;;;;10.13;6.07;;;14.50;91.20;;;;;;6115925;23;20017;-81
2023/04/11 09:08:09;;;;;;;9.35;5.95;;;14.50;91.20;;;;;;6142111;23;20528;-80
2023/04/11 09:10:41;;;;;;;10.50;5.70;;;14.60;91.20;;;;;;6117459;23;20025;-80
2023/04/11 09:13:24;;;;;;;7.68;4.35;;;14.70;90.70;;;;;;6117066;23;20032;-80
2023/04/11 09:16:09;;;;;;;10.10;5.28;;;14.60;90.60;;;;;;6117893;23;20604;-80
2023/04/11 09:18:45;;;;;;;9.40;4.97;;;14.60;90.10;;;;;;6121142;23;20021;-78
2023/04/11 09:21:14;;;;;;;10.20;5.00;;;14.80;89.80;;;;;;6119061;23;20543;-79
2023/04/11 09:23:42;;;;;;;8.93;4.57;;;14.70;89.00;;;;;;6122657;23;20356;-79
2023/04/11 09:26:10;;;;;;;9.93;4.75;;;14.70;88.10;;;;;;6119051;23;20032;-80
2023/04/11 09:28:42;;;;;;;8.25;4.97;;;14.70;87.80;;;;;;6118878;23;20033;-80
2023/04/11 09:31:11;;;;;;;8.43;5.25;;;14.70;87.60;;;;;;6120400;23;20074;-81
2023/04/11 09:33:55;;;;;;;6.78;4.03;;;14.70;87.20;;;;;;6095869;23;20127;-79
2023/04/11 09:36:25;;;;;;;9.55;4.78;;;14.70;87.30;;;;;;6117998;23;20029;-78
2023/04/11 09:38:53;;;;;;;9.80;5.22;;;14.80;87.90;;;;;;6117942;23;20465;-80
2023/04/11 09:41:35;;;;;;;10.80;5.00;;;15.00;86.10;;;;;;6120982;23;20021;-77
2023/04/11 09:44:02;;;;;;;8.63;5.00;;;15.20;86.00;;;;;;6120162;23;20021;-80
2023/04/11 09:46:29;;;;;;;9.18;4.68;;;15.30;85.40;;;;;;6119075;23;20444;-79
2023/04/11 09:48:56;;;;;;;10.45;6.32;;;15.30;86.40;;;;;;6119532;23;20567;-80
2023/04/11 09:51:24;;;;;;;10.77;6.03;;;15.40;87.70;;;;;;6118312;23;20591;-80
2023/04/11 09:54:02;;;;;;;8.60;5.28;;;15.60;88.30;;;;;;6142948;23;20056;-78
2023/04/11 09:56:32;;;;;;;7.70;4.80;;;15.70;86.30;;;;;;6117766;23;20071;-78
2023/04/11 09:59:02;;;;;;;10.07;5.43;;;15.70;84.30;;;;;;6117932;23;20024;-80
2023/04/11 10:01:29;;;;;;;11.23;6.38;;;15.70;85.10;;;;;;6120639;23;20512;-81
2023/04/11 10:03:56;;;;;;;11.00;6.40;;;16.10;87.10;;;;;;6113207;23;20508;-79
2023/04/11 10:06:40;;;;;;;11.98;6.85;;;16.00;84.90;;;;;;6121741;23;20017;-78
2023/04/11 10:09:10;;;;;;;11.50;6.45;;;16.00;84.20;;;;;;6116974;23;20031;-77
2023/04/11 10:11:44;;;;;;;9.70;5.82;;;15.90;84.90;;;;;;6117911;23;20240;-80
2023/04/11 10:14:37;;;;;;;13.32;6.75;;;15.90;84.70;;;;;;6118322;23;20029;-80
2023/04/11 10:17:15;;;;;;;;;;;15.80;84.20;;;;;;6117717;23;20049;-80
2023/04/11 10:19:47;;;;;;;11.50;6.28;;;15.90;84.30;;;;;;6119738;23;19920;-80
2023/04/11 10:22:45;;;;;;;13.63;6.57;;;16.00;84.50;;;;;;6142418;23;20024;-80
2023/04/11 10:25:19;;;;;;;13.75;7.63;;;16.20;83.90;;;;;;6087985;23;20060;-78
2023/04/11 10:27:48;;;;;;;13.93;6.95;;;16.20;82.80;;;;;;6118687;23;20353;-77
2023/04/11 10:30:15;;;;;;;14.68;7.95;;;16.20;82.70;;;;;;6139161;23;20420;-80
2023/04/11 10:33:08;;;;;;;11.60;7.20;;;16.30;82.40;;;;;;6115637;23;20483;-81
2023/04/11 10:35:54;;;;;;;13.93;7.32;;;16.40;82.00;;;;;;6117175;23;20024;-80
2023/04/11 10:38:40;;;;;;;16.30;8.32;;;16.70;82.00;;;;;;6119457;23;20025;-80
2023/04/11 10:41:26;;;;;;;16.02;7.53;;;16.80;79.70;;;;;;6119202;23;20554;-80
2023/04/11 10:44:22;;;;;;;14.77;7.97;;;16.70;80.90;;;;;;6119578;23;20021;-81
2023/04/11 10:46:53;;;;;;;15.50;8.00;;;16.90;81.00;;;;;;6123556;23;20025;-79
2023/04/11 10:49:38;;;;;;;18.65;9.30;;;16.90;79.00;;;;;;6145476;23;20048;-80
2023/04/11 10:52:23;;;;;;;15.65;8.57;;;16.80;76.80;;;;;;6118094;23;20029;-78
2023/04/11 10:54:52;;;;;;;15.43;8.60;;;16.70;78.50;;;;;;6116640;23;20028;-77
2023/04/11 10:57:20;;;;;;;18.05;10.45;;;17.00;78.80;;;;;;6116631;23;20024;-82
2023/04/11 10:59:50;;;;;;;18.60;10.07;;;16.70;78.50;;;;;;6142031;23;20017;-80
2023/04/11 11:02:18;;;;;;;18.45;10.30;;;16.70;79.50;;;;;;6138758;23;20024;-79
2023/04/11 11:04:47;;;;;;;22.77;10.70;;;16.70;78.80;;;;;;6116325;23;20032;-80
2023/04/11 11:07:15;;;;;;;22.30;13.38;;;16.80;79.50;;;;;;6139857;23;20024;-78
2023/04/11 11:09:48;;;;;;;24.83;13.57;;;16.90;79.30;;;;;;6116586;23;20024;-79
2023/04/11 11:12:15;;;;;;;;;;;17.00;79.30;;;;;;6137891;23;20472;-79
2023/04/11 11:14:45;;;;;;;21.90;12.27;;;17.30;79.20;;;;;;6115470;23;19920;-79
2023/04/11 11:17:13;;;;;;;25.45;13.98;;;17.50;79.70;;;;;;6116377;23;20032;-80
2023/04/11 11:19:45;;;;;;;21.52;13.15;;;17.30;78.60;;;;;;6118113;23;20021;-79
2023/04/11 11:22:24;;;;;;;20.02;11.27;;;17.40;78.50;;;;;;6145383;23;20036;-77
2023/04/11 11:24:53;;;;;;;21.73;12.68;;;17.50;77.30;;;;;;6141663;23;20443;-80
2023/04/11 11:27:22;;;;;;;20.63;12.48;;;17.50;76.20;;;;;;6117083;23;20032;-80
2023/04/11 11:29:50;;;;;;;24.17;14.45;;;17.50;77.60;;;;;;6140400;23;20540;-79
2023/04/11 11:32:28;;;;;;;23.88;13.38;;;17.50;77.70;;;;;;6137071;23;20586;-81
2023/04/11 11:34:56;;;;;;;19.85;10.98;;;17.40;76.80;;;;;;6142492;23;20040;-78
2023/04/11 11:37:23;;;;;;;19.83;11.55;;;17.50;77.50;;;;;;6114481;23;20024;-79
2023/04/11 11:39:51;;;;;;;18.17;10.35;;;17.80;76.30;;;;;;6142318;23;20021;-80
2023/04/11 11:42:19;;;;;;;17.15;10.23;;;17.80;74.20;;;;;;6116196;23;20063;-81
2023/04/11 11:44:48;;;;;;;19.88;11.43;;;17.70;75.00;;;;;;6141939;23;20524;-80
2023/04/11 11:47:15;;;;;;;19.88;10.23;;;17.70;74.60;;;;;;6140793;23;20032;-79
2023/04/11 11:49:55;;;;;;;18.45;10.52;;;17.30;74.50;;;;;;6141995;23;20434;-80
2023/04/11 11:52:42;;;;;;;16.98;9.25;;;17.40;73.60;;;;;;6134459;23;20021;-81
2023/04/11 11:55:31;;;;;;;15.27;8.27;;;17.30;73.30;;;;;;6116681;23;20034;-81
2023/04/11 11:58:00;;;;;;;16.05;8.52;;;17.40;73.60;;;;;;6118368;23;20060;-81
2023/04/11 12:00:30;;;;;;;15.75;9.10;;;17.40;73.80;;;;;;6119095;23;20539;-81
2023/04/11 12:02:58;;;;;;;15.15;8.68;;;17.80;73.30;;;;;;6120340;23;20031;-81
2023/04/11 12:05:31;;;;;;;14.35;7.57;;;18.10;70.90;;;;;;6117408;23;20048;-79
2023/04/11 12:08:04;;;;;;;12.15;6.28;;;18.20;70.80;;;;;;6115447;23;20064;-76
2023/04/11 12:10:50;;;;;;;12.50;6.63;;;18.30;70.10;;;;;;6116210;23;20405;-79
2023/04/11 12:13:24;;;;;;;12.07;6.47;;;18.00;69.70;;;;;;6116738;23;20029;-79
2023/04/11 12:15:56;;;;;;;13.15;7.55;;;17.90;69.80;;;;;;6115844;23;20599;-80
2023/04/11 12:18:27;;;;;;;12.00;6.75;;;17.70;69.90;;;;;;6117845;23;20036;-80
2023/04/11 12:20:54;;;;;;;11.68;6.65;;;17.60;71.80;;;;;;6143428;23;20437;-80
2023/04/11 12:23:22;;;;;;;13.80;7.57;;;17.60;71.70;;;;;;6118065;23;20310;-80
2023/04/11 12:25:49;;;;;;;16.02;7.53;;;17.40;71.50;;;;;;6117401;23;20032;-80
2023/04/11 12:28:16;;;;;;;15.38;7.82;;;17.50;70.90;;;;;;6143755;23;20744;-80
2023/04/11 12:30:43;;;;;;;12.07;7.10;;;17.70;70.40;;;;;;6141289;23;20032;-80
2023/04/11 12:33:10;;;;;;;12.68;6.57;;;17.80;69.90;;;;;;6113458;23;20471;-81
2023/04/11 12:35:37;;;;;;;13.43;6.95;;;18.10;70.90;;;;;;6112877;23;20021;-79
2023/04/11 12:38:06;;;;;;;11.30;7.00;;;18.40;71.50;;;;;;6114849;23;20493;-81
2023/04/11 12:40:33;;;;;;;13.23;7.93;;;18.40;70.80;;;;;;6111978;23;20536;-80
2023/04/11 12:43:00;;;;;;;13.82;7.75;;;18.10;69.00;;;;;;6112306;23;20533;-81
2023/04/11 12:45:27;;;;;;;13.98;7.15;;;18.10;70.30;;;;;;6122270;23;20052;-80
2023/04/11 12:47:54;;;;;;;14.40;7.25;;;18.20;69.60;;;;;;6142737;23;20027;-80
2023/04/11 12:50:22;;;;;;;13.02;7.85;;;18.20;68.90;;;;;;6118513;23;20051;-81
2023/04/11 12:52:51;;;;;;;14.48;7.75;;;18.20;67.50;;;;;;6118336;23;20414;-81